createdAt,value
2018-11-21T00:02:48.670Z,84.18
2018-11-21T00:07:45.566Z,83.70
2018-11-21T00:12:45.699Z,83.43
2018-11-21T00:17:42.577Z,82.97
2018-11-21T00:22:39.455Z,82.72
2018-11-21T00:27:36.351Z,82.13
2018-11-21T00:32:33.233Z,82.11
2018-11-21T00:37:30.122Z,81.46
2018-11-21T00:42:27.026Z,81.01
2018-11-21T00:47:23.922Z,81.14
2018-11-21T00:52:20.794Z,80.25
2018-11-21T00:57:17.687Z,80.51
2018-11-21T01:02:14.567Z,80.33
2018-11-21T01:07:11.574Z,80.68
2018-11-21T01:12:08.494Z,80.73
2018-11-21T01:17:05.375Z,80.92
2018-11-21T01:22:02.275Z,81.13
2018-11-21T01:26:59.149Z,81.04
2018-11-21T01:31:56.047Z,81.08
2018-11-21T01:36:52.946Z,81.60
2018-11-21T01:41:49.853Z,81.49
2018-11-21T01:46:46.738Z,81.41
2018-11-21T01:51:43.622Z,81.43
2018-11-21T01:56:40.500Z,81.36
2018-11-21T02:01:37.380Z,81.16
2018-11-21T02:06:34.265Z,80.86
2018-11-21T02:11:31.200Z,81.15
2018-11-21T02:16:28.085Z,81.05
2018-11-21T02:21:24.970Z,80.72
2018-11-21T02:26:21.851Z,80.71
2018-11-21T02:31:18.747Z,80.35
2018-11-21T02:36:15.636Z,80.61
2018-11-21T02:41:12.554Z,80.54
2018-11-21T02:46:09.440Z,79.79
2018-11-21T02:51:06.339Z,80.25
2018-11-21T02:56:03.234Z,80.21
2018-11-21T03:01:00.139Z,80.23
2018-11-21T03:05:57.039Z,80.26
2018-11-21T03:10:53.926Z,80.27
2018-11-21T03:15:50.877Z,80.48
2018-11-21T03:20:47.748Z,80.18
2018-11-21T03:25:44.667Z,80.35
2018-11-21T03:30:41.581Z,80.23
2018-11-21T03:35:38.471Z,80.10
2018-11-21T03:40:35.372Z,80.20
2018-11-21T03:45:32.265Z,79.97
2018-11-21T03:50:29.161Z,80.18
2018-11-21T03:55:26.049Z,80.00
2018-11-21T04:00:23.759Z,80.41
2018-11-21T04:05:20.634Z,80.44
2018-11-21T04:10:17.537Z,80.16
2018-11-21T04:15:14.438Z,80.58
2018-11-21T04:20:11.329Z,80.28
2018-11-21T04:25:09.662Z,80.36
2018-11-21T04:30:09.572Z,80.10
2018-11-21T04:35:06.850Z,79.78
2018-11-21T04:40:05.517Z,79.86
2018-11-21T04:45:02.446Z,79.82
2018-11-21T04:49:59.343Z,79.82
2018-11-21T04:54:56.255Z,79.40
2018-11-21T05:00:02.513Z,79.22
2018-11-21T05:04:59.378Z,79.52
2018-11-21T05:09:56.260Z,79.59
2018-11-21T05:14:53.216Z,79.35
2018-11-21T05:19:50.104Z,79.30
2018-11-21T05:24:47.099Z,79.35
2018-11-21T05:29:45.560Z,79.24
2018-11-21T05:34:42.417Z,79.19
2018-11-21T05:39:39.418Z,79.32
2018-11-21T05:44:36.330Z,79.17
2018-11-21T05:49:33.212Z,79.18
2018-11-21T05:54:30.102Z,79.33
2018-11-21T05:59:32.551Z,79.04
2018-11-21T06:04:29.444Z,79.19
2018-11-21T06:09:26.724Z,79.11
2018-11-21T06:14:23.225Z,78.83
2018-11-21T06:19:20.130Z,79.32
2018-11-21T06:24:17.013Z,79.05
2018-11-21T06:29:28.453Z,79.06
2018-11-21T06:34:25.450Z,78.79
2018-11-21T06:39:22.401Z,79.03
2018-11-21T06:44:19.335Z,79.65
2018-11-21T06:49:16.247Z,79.18
2018-11-21T06:54:13.876Z,79.33
2018-11-21T06:59:12.423Z,79.24
2018-11-21T07:04:09.326Z,79.18
2018-11-21T07:09:08.642Z,79.07
2018-11-21T07:14:07.316Z,79.25
2018-11-21T07:19:02.833Z,79.00
2018-11-21T07:23:59.752Z,79.32
2018-11-21T07:28:56.714Z,79.09
2018-11-21T07:33:53.615Z,79.04
2018-11-21T07:38:50.543Z,78.99
2018-11-21T07:43:47.479Z,79.17
2018-11-21T07:48:44.427Z,79.18
2018-11-21T07:53:41.357Z,79.14
2018-11-21T07:58:38.329Z,79.14
2018-11-21T08:03:46.233Z,78.92
2018-11-21T08:09:03.110Z,78.96
2018-11-21T08:14:28.774Z,78.80
2018-11-21T08:19:45.299Z,78.76
2018-11-21T08:25:11.014Z,78.97
2018-11-21T08:30:08.914Z,78.73
2018-11-21T08:35:05.846Z,78.78
2018-11-21T08:40:02.788Z,78.44
2018-11-21T08:44:59.743Z,78.45
2018-11-21T08:49:56.675Z,78.19
2018-11-21T08:54:53.596Z,77.95
2018-11-21T09:00:05.506Z,78.10
2018-11-21T09:05:02.398Z,77.44
2018-11-21T09:09:59.317Z,77.56
2018-11-21T09:14:56.411Z,77.39
2018-11-21T09:19:53.361Z,76.59
2018-11-21T09:24:50.279Z,76.91
2018-11-21T09:29:50.554Z,76.58
2018-11-21T09:34:47.442Z,75.86
2018-11-21T09:39:45.949Z,75.99
2018-11-21T09:44:43.212Z,75.47
2018-11-21T09:49:40.141Z,75.18
2018-11-21T09:54:37.410Z,75.46
2018-11-21T09:59:56.065Z,75.15
2018-11-21T10:04:52.957Z,75.40
2018-11-21T10:09:50.743Z,73.89
2018-11-21T10:14:47.668Z,74.10
2018-11-21T10:19:44.600Z,74.75
2018-11-21T10:24:41.691Z,74.75
2018-11-21T10:29:42.364Z,75.90
2018-11-21T10:35:50.398Z,75.98
2018-11-21T10:40:49.064Z,75.39
2018-11-21T10:45:47.730Z,76.06
2018-11-21T10:50:46.463Z,75.40
2018-11-21T10:55:45.136Z,74.94
2018-11-21T11:01:01.709Z,75.01
2018-11-21T11:06:28.936Z,74.35
2018-11-21T11:11:45.213Z,74.69
2018-11-21T11:17:04.303Z,74.12
2018-11-21T11:22:28.311Z,75.32
2018-11-21T11:27:51.722Z,75.15
2018-11-21T11:33:07.220Z,75.11
2018-11-21T11:38:25.085Z,74.77
2018-11-21T11:44:01.084Z,75.71
2018-11-21T11:49:09.739Z,75.47
2018-11-21T11:54:27.576Z,75.24
2018-11-21T11:59:50.514Z,75.79
2018-11-21T12:05:20.916Z,76.41
2018-11-21T12:10:38.692Z,76.31
2018-11-21T12:15:55.032Z,75.71
2018-11-21T12:21:11.258Z,77.20
2018-11-21T12:26:30.393Z,76.57
2018-11-21T12:31:56.964Z,76.60
2018-11-21T12:37:27.875Z,76.76
2018-11-21T12:42:44.441Z,77.29
2018-11-21T12:47:50.285Z,77.65
2018-11-21T12:53:14.474Z,76.98
2018-11-21T12:58:28.743Z,77.20
2018-11-21T13:03:46.610Z,76.54
2018-11-21T13:08:51.551Z,76.68
2018-11-21T13:14:01.590Z,76.51
2018-11-21T13:19:31.007Z,76.40
2018-11-21T13:24:54.738Z,76.81
2018-11-21T13:30:24.847Z,76.59
2018-11-21T13:35:46.322Z,76.86
2018-11-21T13:40:59.467Z,77.25
2018-11-21T13:46:20.105Z,78.09
2018-11-21T13:51:36.623Z,77.66
2018-11-21T13:56:35.597Z,77.39
2018-11-21T14:01:34.292Z,77.72
2018-11-21T14:06:33.023Z,77.78
2018-11-21T14:11:31.764Z,77.69
2018-11-21T14:16:30.456Z,77.69
2018-11-21T14:21:29.216Z,78.09
2018-11-21T14:26:27.896Z,77.94
2018-11-21T14:31:26.544Z,77.62
2018-11-21T14:36:27.001Z,77.82
2018-11-21T14:41:25.846Z,77.65
2018-11-21T14:46:24.513Z,78.61
2018-11-21T14:51:23.215Z,78.61
2018-11-21T14:56:21.918Z,79.06
2018-11-21T15:01:20.605Z,79.29
2018-11-21T15:06:19.285Z,79.47
2018-11-21T15:11:17.940Z,79.86
2018-11-21T15:16:16.651Z,79.92
2018-11-21T15:21:16.654Z,80.18
2018-11-21T15:26:14.065Z,80.21
2018-11-21T15:31:12.759Z,80.51
2018-11-21T15:36:11.412Z,80.44
2018-11-21T15:41:10.083Z,80.60
2018-11-21T15:46:09.874Z,80.61
2018-11-21T15:51:08.540Z,80.57
2018-11-21T15:56:07.177Z,80.39
2018-11-21T16:01:06.098Z,80.28
2018-11-21T16:06:05.063Z,80.43
2018-11-21T16:11:03.708Z,80.50
2018-11-21T16:16:02.351Z,80.29
2018-11-21T16:21:01.017Z,80.61
2018-11-21T16:25:59.664Z,80.78
2018-11-21T16:30:58.319Z,80.64
2018-11-21T16:35:56.960Z,80.61
2018-11-21T16:40:55.689Z,80.36
2018-11-21T16:45:56.107Z,80.54
2018-11-21T16:50:54.756Z,80.51
2018-11-21T16:55:53.407Z,80.52
2018-11-21T17:00:52.055Z,81.42
2018-11-21T17:05:50.702Z,80.97
2018-11-21T17:10:49.368Z,80.15
2018-11-21T17:15:48.007Z,80.48
2018-11-21T17:20:46.697Z,80.31
2018-11-21T17:25:45.362Z,80.50
2018-11-21T17:30:45.125Z,80.36
2018-11-21T17:35:43.736Z,80.79
2018-11-21T17:40:43.483Z,80.80
2018-11-21T17:45:42.134Z,80.81
2018-11-21T17:50:40.784Z,80.63
2018-11-21T17:55:40.006Z,80.93
2018-11-21T18:00:38.735Z,81.09
2018-11-21T18:05:38.948Z,80.74
2018-11-21T18:10:39.192Z,80.98
2018-11-21T18:15:37.829Z,81.01
2018-11-21T18:20:36.513Z,81.21
2018-11-21T18:25:37.132Z,81.04
2018-11-21T18:30:36.780Z,81.28
2018-11-21T18:35:35.738Z,81.39
2018-11-21T18:40:34.129Z,81.10
2018-11-21T18:45:35.639Z,80.98
2018-11-21T18:50:34.423Z,80.54
2018-11-21T18:55:38.177Z,80.66
2018-11-21T19:00:38.444Z,80.87
2018-11-21T19:05:37.064Z,81.09
2018-11-21T19:10:35.703Z,81.23
2018-11-21T19:15:34.392Z,81.20
2018-11-21T19:20:33.008Z,81.14
2018-11-21T19:25:31.968Z,81.37
2018-11-21T19:30:31.495Z,81.52
2018-11-21T19:35:30.168Z,81.97
2018-11-21T19:40:28.808Z,82.07
2018-11-21T19:45:27.466Z,82.07
2018-11-21T19:50:26.104Z,82.32
2018-11-21T19:55:26.583Z,82.81
2018-11-21T20:00:27.671Z,83.17
2018-11-21T20:05:26.413Z,82.77
2018-11-21T20:10:25.265Z,82.84
2018-11-21T20:15:25.104Z,83.05
2018-11-21T20:20:24.206Z,82.96
2018-11-21T20:25:24.134Z,82.86
2018-11-21T20:30:28.431Z,82.98
2018-11-21T20:35:27.049Z,83.11
2018-11-21T20:40:27.416Z,83.22
2018-11-21T20:45:27.052Z,83.50
2018-11-21T20:50:25.704Z,83.52
2018-11-21T20:55:25.883Z,83.19
2018-11-21T21:00:26.997Z,83.48
2018-11-21T21:05:26.254Z,83.55
2018-11-21T21:10:26.397Z,83.76
2018-11-21T21:15:25.047Z,83.78
2018-11-21T21:20:25.679Z,83.73
2018-11-21T21:25:31.100Z,83.67
2018-11-21T21:30:32.193Z,83.40
2018-11-21T21:35:32.207Z,83.41
2018-11-21T21:40:30.964Z,82.95
2018-11-21T21:45:30.689Z,82.92
2018-11-21T21:50:30.969Z,82.92
2018-11-21T21:55:30.483Z,83.22
2018-11-21T22:00:29.805Z,83.12
2018-11-21T22:05:28.457Z,82.62
2018-11-21T22:10:27.133Z,82.58
2018-11-21T22:15:27.150Z,82.43
2018-11-21T22:20:25.882Z,82.56
2018-11-21T22:25:24.754Z,82.81
2018-11-21T22:30:24.001Z,82.72
2018-11-21T22:35:25.085Z,82.59
2018-11-21T22:40:23.331Z,82.78
2018-11-21T22:45:22.743Z,82.52
2018-11-21T22:50:22.678Z,82.53
2018-11-21T22:55:21.734Z,82.67
2018-11-21T23:00:23.642Z,83.07
2018-11-21T23:05:22.297Z,82.88
2018-11-21T23:10:26.617Z,82.45
2018-11-21T23:15:25.277Z,82.14
2018-11-21T23:20:23.929Z,82.79
2018-11-21T23:25:22.599Z,82.88
2018-11-21T23:30:22.431Z,82.70
2018-11-21T23:35:21.548Z,82.16
2018-11-21T23:40:20.198Z,82.52
2018-11-21T23:45:19.069Z,82.32
2018-11-21T23:50:18.495Z,83.29
2018-11-21T23:55:18.623Z,82.86
